sensor_id;sensor_type;location;lat;lon;timestamp;pressure;altitude;pressure_sealevel;temperature;humidity
12868;BME280;33517;49.866;8.320;2023-04-04T00:01:09;101637.31;;;0.96;62.50
12868;BME280;33517;49.866;8.320;2023-04-04T00:04:02;101635.63;;;0.95;63.48
12868;BME280;33517;49.866;8.320;2023-04-04T00:06:54;101632.19;;;0.94;63.02
12868;BME280;33517;49.866;8.320;2023-04-04T00:09:46;101626.16;;;0.94;63.63
12868;BME280;33517;49.866;8.320;2023-04-04T00:12:39;101629.69;;;0.93;63.55
12868;BME280;33517;49.866;8.320;2023-04-04T00:15:31;101618.72;;;0.88;63.34
12868;BME280;33517;49.866;8.320;2023-04-04T00:18:24;101617.03;;;0.87;63.57
12868;BME280;33517;49.866;8.320;2023-04-04T00:21:16;101624.03;;;0.85;63.34
12868;BME280;33517;49.866;8.320;2023-04-04T00:24:07;101619.91;;;0.81;63.59
12868;BME280;33517;49.866;8.320;2023-04-04T00:27:00;101616.72;;;0.76;63.13
12868;BME280;33517;49.866;8.320;2023-04-04T00:29:54;101612.38;;;0.76;63.95
12868;BME280;33517;49.866;8.320;2023-04-04T00:32:46;101614.03;;;0.77;63.01
12868;BME280;33517;49.866;8.320;2023-04-04T00:35:37;101613.16;;;0.78;63.96
12868;BME280;33517;49.866;8.320;2023-04-04T00:38:29;101614.19;;;0.74;63.99
12868;BME280;33517;49.866;8.320;2023-04-04T00:41:21;101605.50;;;0.75;64.02
12868;BME280;33517;49.866;8.320;2023-04-04T00:44:13;101600.41;;;0.74;64.01
12868;BME280;33517;49.866;8.320;2023-04-04T00:47:06;101602.38;;;0.69;64.55
12868;BME280;33517;49.866;8.320;2023-04-04T00:49:58;101606.78;;;0.67;64.13
12868;BME280;33517;49.866;8.320;2023-04-04T00:52:51;101602.50;;;0.66;64.82
12868;BME280;33517;49.866;8.320;2023-04-04T00:55:43;101601.63;;;0.67;64.68
12868;BME280;33517;49.866;8.320;2023-04-04T00:58:35;101604.34;;;0.64;64.42
12868;BME280;33517;49.866;8.320;2023-04-04T01:01:27;101591.53;;;0.61;64.73
12868;BME280;33517;49.866;8.320;2023-04-04T01:04:22;101596.66;;;0.62;65.04
12868;BME280;33517;49.866;8.320;2023-04-04T01:07:14;101591.53;;;0.61;64.91
12868;BME280;33517;49.866;8.320;2023-04-04T01:10:07;101596.66;;;0.62;64.75
12868;BME280;33517;49.866;8.320;2023-04-04T01:12:59;101600.09;;;0.63;64.90
12868;BME280;33517;49.866;8.320;2023-04-04T01:15:51;101595.97;;;0.59;64.43
12868;BME280;33517;49.866;8.320;2023-04-04T01:18:43;101594.25;;;0.58;64.75
12868;BME280;33517;49.866;8.320;2023-04-04T01:21:38;101592.59;;;0.57;65.20
12868;BME280;33517;49.866;8.320;2023-04-04T01:24:32;101590.13;;;0.54;64.79
12868;BME280;33517;49.866;8.320;2023-04-04T01:27:26;101586.78;;;0.52;64.66
12868;BME280;33517;49.866;8.320;2023-04-04T01:30:18;101584.44;;;0.47;64.78
12868;BME280;33517;49.866;8.320;2023-04-04T01:33:17;101585.13;;;0.51;65.37
12868;BME280;33517;49.866;8.320;2023-04-04T01:36:16;101586.09;;;0.48;64.95
12868;BME280;33517;49.866;8.320;2023-04-04T01:39:16;101591.44;;;0.45;65.17
12868;BME280;33517;49.866;8.320;2023-04-04T01:42:10;101583.88;;;0.41;65.69
12868;BME280;33517;49.866;8.320;2023-04-04T01:45:06;101579.63;;;0.40;65.25
12868;BME280;33517;49.866;8.320;2023-04-04T01:47:58;101577.91;;;0.39;65.02
12868;BME280;33517;49.866;8.320;2023-04-04T01:50:50;101577.16;;;0.37;65.38
12868;BME280;33517;49.866;8.320;2023-04-04T01:53:42;101579.22;;;0.30;65.97
12868;BME280;33517;49.866;8.320;2023-04-04T01:56:34;101572.50;;;0.26;65.61
12868;BME280;33517;49.866;8.320;2023-04-04T01:59:25;101580.34;;;0.25;65.63
12868;BME280;33517;49.866;8.320;2023-04-04T02:02:19;101575.28;;;0.22;65.93
12868;BME280;33517;49.866;8.320;2023-04-04T02:05:11;101572.78;;;0.20;66.41
12868;BME280;33517;49.866;8.320;2023-04-04T02:08:03;101571.16;;;0.18;66.45
12868;BME280;33517;49.866;8.320;2023-04-04T02:10:56;101575.50;;;0.17;66.29
12868;BME280;33517;49.866;8.320;2023-04-04T02:13:48;101575.50;;;0.17;66.57
12868;BME280;33517;49.866;8.320;2023-04-04T02:16:40;101584.25;;;0.15;66.89
12868;BME280;33517;49.866;8.320;2023-04-04T02:19:33;101582.44;;;0.17;66.20
12868;BME280;33517;49.866;8.320;2023-04-04T02:22:25;101590.97;;;0.19;66.99
12868;BME280;33517;49.866;8.320;2023-04-04T02:25:16;101585.88;;;0.17;66.74
12868;BME280;33517;49.866;8.320;2023-04-04T02:28:08;101590.13;;;0.18;66.73
12868;BME280;33517;49.866;8.320;2023-04-04T02:31:01;101586.75;;;0.16;66.89
12868;BME280;33517;49.866;8.320;2023-04-04T02:33:53;101580.72;;;0.16;66.99
12868;BME280;33517;49.866;8.320;2023-04-04T02:36:46;101586.06;;;0.13;66.93
12868;BME280;33517;49.866;8.320;2023-04-04T02:39:38;101581.78;;;0.12;66.92
12868;BME280;33517;49.866;8.320;2023-04-04T02:42:30;101587.19;;;0.07;67.28
12868;BME280;33517;49.866;8.320;2023-04-04T02:45:21;101575.44;;;0.00;66.96
12868;BME280;33517;49.866;8.320;2023-04-04T02:48:13;101579.78;;;-0.01;67.19
12868;BME280;33517;49.866;8.320;2023-04-04T02:51:05;101580.75;;;-0.03;67.86
12868;BME280;33517;49.866;8.320;2023-04-04T02:53:59;101573.91;;;-0.04;67.71
12868;BME280;33517;49.866;8.320;2023-04-04T02:56:52;101572.13;;;-0.04;67.75
12868;BME280;33517;49.866;8.320;2023-04-04T02:59:44;101569.50;;;-0.02;67.61
12868;BME280;33517;49.866;8.320;2023-04-04T03:02:36;101573.06;;;-0.05;68.24
12868;BME280;33517;49.866;8.320;2023-04-04T03:05:28;101570.47;;;-0.05;68.27
12868;BME280;33517;49.866;8.320;2023-04-04T03:08:20;101572.91;;;-0.02;68.17
12868;BME280;33517;49.866;8.320;2023-04-04T03:11:17;101569.34;;;0.01;68.23
12868;BME280;33517;49.866;8.320;2023-04-04T03:14:10;101565.78;;;0.04;67.82
12868;BME280;33517;49.866;8.320;2023-04-04T03:17:02;101566.16;;;-0.04;68.29
12868;BME280;33517;49.866;8.320;2023-04-04T03:19:55;101565.41;;;-0.08;67.95
12868;BME280;33517;49.866;8.320;2023-04-04T03:22:46;101564.72;;;-0.11;68.35
12868;BME280;33517;49.866;8.320;2023-04-04T03:25:38;101567.47;;;-0.14;68.23
12868;BME280;33517;49.866;8.320;2023-04-04T03:28:32;101561.38;;;-0.13;68.11
12868;BME280;33517;49.866;8.320;2023-04-04T03:31:24;101562.38;;;-0.16;68.13
12868;BME280;33517;49.866;8.320;2023-04-04T03:34:15;101552.91;;;-0.17;68.20
12868;BME280;33517;49.866;8.320;2023-04-04T03:37:07;101556.19;;;-0.13;67.91
12868;BME280;33517;49.866;8.320;2023-04-04T03:39:59;101556.19;;;-0.13;67.92
12868;BME280;33517;49.866;8.320;2023-04-04T03:42:51;101553.56;;;-0.12;67.64
12868;BME280;33517;49.866;8.320;2023-04-04T03:45:44;101549.91;;;-0.08;67.49
12868;BME280;33517;49.866;8.320;2023-04-04T03:48:37;101552.56;;;-0.09;67.83
12868;BME280;33517;49.866;8.320;2023-04-04T03:51:29;101555.16;;;-0.09;67.82
12868;BME280;33517;49.866;8.320;2023-04-04T03:54:21;101554.66;;;-0.17;67.86
12868;BME280;33517;49.866;8.320;2023-04-04T03:57:13;101552.97;;;-0.18;68.00
12868;BME280;33517;49.866;8.320;2023-04-04T04:00:06;101550.47;;;-0.20;68.18
12868;BME280;33517;49.866;8.320;2023-04-04T04:02:59;101547.81;;;-0.18;67.59
12868;BME280;33517;49.866;8.320;2023-04-04T04:05:51;101550.41;;;-0.18;68.10
12868;BME280;33517;49.866;8.320;2023-04-04T04:08:43;101552.41;;;-0.25;68.30
12868;BME280;33517;49.866;8.320;2023-04-04T04:11:35;101550.81;;;-0.27;68.09
12868;BME280;33517;49.866;8.320;2023-04-04T04:14:27;101545.41;;;-0.23;68.03
12868;BME280;33517;49.866;8.320;2023-04-04T04:17:19;101548.09;;;-0.24;67.85
12868;BME280;33517;49.866;8.320;2023-04-04T04:20:12;101547.88;;;-0.20;68.20
12868;BME280;33517;49.866;8.320;2023-04-04T04:23:04;101543.53;;;-0.19;68.42
12868;BME280;33517;49.866;8.320;2023-04-04T04:25:56;101540.31;;;-0.24;67.95
12868;BME280;33517;49.866;8.320;2023-04-04T04:28:48;101544.59;;;-0.23;68.25
12868;BME280;33517;49.866;8.320;2023-04-04T04:31:39;101539.44;;;-0.23;67.93
12868;BME280;33517;49.866;8.320;2023-04-04T04:34:31;101536.06;;;-0.25;68.00
12868;BME280;33517;49.866;8.320;2023-04-04T04:37:24;101539.56;;;-0.26;67.92
12868;BME280;33517;49.866;8.320;2023-04-04T04:40:16;101537.94;;;-0.29;67.73
12868;BME280;33517;49.866;8.320;2023-04-04T04:43:08;101541.53;;;-0.31;67.68
12868;BME280;33517;49.866;8.320;2023-04-04T04:46:00;101544.09;;;-0.31;68.17
12868;BME280;33517;49.866;8.320;2023-04-04T04:48:52;101551.94;;;-0.33;68.21
12868;BME280;33517;49.866;8.320;2023-04-04T04:51:44;101554.63;;;-0.36;68.30
12868;BME280;33517;49.866;8.320;2023-04-04T04:54:37;101555.56;;;-0.37;68.18
12868;BME280;33517;49.866;8.320;2023-04-04T04:57:30;101556.44;;;-0.38;68.56
12868;BME280;33517;49.866;8.320;2023-04-04T05:00:23;101565.06;;;-0.37;68.74
12868;BME280;33517;49.866;8.320;2023-04-04T05:03:15;101561.63;;;-0.38;67.79
12868;BME280;33517;49.866;8.320;2023-04-04T05:06:07;101558.97;;;-0.36;68.22
12868;BME280;33517;49.866;8.320;2023-04-04T05:08:59;101565.75;;;-0.34;68.29
12868;BME280;33517;49.866;8.320;2023-04-04T05:11:52;101562.19;;;-0.31;67.88
12868;BME280;33517;49.866;8.320;2023-04-04T05:14:44;101562.81;;;-0.26;68.15
12868;BME280;33517;49.866;8.320;2023-04-04T05:17:36;101565.28;;;-0.23;68.57
12868;BME280;33517;49.866;8.320;2023-04-04T05:20:28;101559.69;;;-0.14;68.24
12868;BME280;33517;49.866;8.320;2023-04-04T05:23:21;101562.72;;;-0.05;68.31
12868;BME280;33517;49.866;8.320;2023-04-04T05:26:13;101565.84;;;0.21;68.37
12868;BME280;33517;49.866;8.320;2023-04-04T05:29:06;101565.69;;;1.12;66.68
12868;BME280;33517;49.866;8.320;2023-04-04T05:31:58;101541.56;;;3.70;60.77
12868;BME280;33517;49.866;8.320;2023-04-04T05:34:50;101542.66;;;5.39;55.95
12868;BME280;33517;49.866;8.320;2023-04-04T05:37:42;101539.44;;;6.45;52.58
12868;BME280;33517;49.866;8.320;2023-04-04T05:40:34;101545.72;;;7.36;51.34
12868;BME280;33517;49.866;8.320;2023-04-04T05:43:26;101537.88;;;7.91;48.57
12868;BME280;33517;49.866;8.320;2023-04-04T05:46:19;101545.38;;;7.63;48.87
12868;BME280;33517;49.866;8.320;2023-04-04T05:49:11;101542.41;;;8.54;46.84
12868;BME280;33517;49.866;8.320;2023-04-04T05:52:03;101532.16;;;9.45;45.25
12868;BME280;33517;49.866;8.320;2023-04-04T05:54:55;101538.13;;;9.77;44.47
12868;BME280;33517;49.866;8.320;2023-04-04T05:57:47;101544.53;;;9.93;43.78
12868;BME280;33517;49.866;8.320;2023-04-04T06:00:39;101537.69;;;9.72;44.47
12868;BME280;33517;49.866;8.320;2023-04-04T06:03:33;101545.97;;;10.66;42.28
12868;BME280;33517;49.866;8.320;2023-04-04T06:06:25;101548.19;;;11.74;40.62
12868;BME280;33517;49.866;8.320;2023-04-04T06:09:17;101545.81;;;12.52;39.71
12868;BME280;33517;49.866;8.320;2023-04-04T06:12:09;101550.66;;;11.75;39.61
12868;BME280;33517;49.866;8.320;2023-04-04T06:15:01;101552.63;;;11.64;39.83
12868;BME280;33517;49.866;8.320;2023-04-04T06:17:53;101558.69;;;12.38;38.86
12868;BME280;33517;49.866;8.320;2023-04-04T06:20:46;101562.94;;;11.48;39.34
12868;BME280;33517;49.866;8.320;2023-04-04T06:23:38;101566.97;;;10.28;40.31
12868;BME280;33517;49.866;8.320;2023-04-04T06:26:30;101555.59;;;12.25;38.43
12868;BME280;33517;49.866;8.320;2023-04-04T06:29:22;101563.50;;;13.30;37.91
12868;BME280;33517;49.866;8.320;2023-04-04T06:32:15;101563.44;;;14.07;35.68
12868;BME280;33517;49.866;8.320;2023-04-04T06:35:08;101569.38;;;13.42;36.18
12868;BME280;33517;49.866;8.320;2023-04-04T06:38:01;101576.50;;;11.72;37.49
12868;BME280;33517;49.866;8.320;2023-04-04T06:40:55;101577.44;;;12.79;37.50
12868;BME280;33517;49.866;8.320;2023-04-04T06:43:46;101572.53;;;13.97;34.89
12868;BME280;33517;49.866;8.320;2023-04-04T06:46:38;101583.28;;;14.03;34.91
12868;BME280;33517;49.866;8.320;2023-04-04T06:49:31;101588.69;;;12.99;36.61
12868;BME280;33517;49.866;8.320;2023-04-04T06:52:24;101586.16;;;12.97;36.08
12868;BME280;33517;49.866;8.320;2023-04-04T06:55:17;101588.19;;;13.90;34.79
12868;BME280;33517;49.866;8.320;2023-04-04T06:58:09;101582.06;;;14.23;34.09
12868;BME280;33517;49.866;8.320;2023-04-04T07:01:01;101593.06;;;13.51;34.45
12868;BME280;33517;49.866;8.320;2023-04-04T07:03:53;101590.81;;;13.13;34.28
12868;BME280;33517;49.866;8.320;2023-04-04T07:06:45;101583.31;;;14.45;34.54
12868;BME280;33517;49.866;8.320;2023-04-04T07:09:37;101583.03;;;15.77;32.98
12868;BME280;33517;49.866;8.320;2023-04-04T07:12:30;101591.88;;;16.77;32.25
12868;BME280;33517;49.866;8.320;2023-04-04T07:15:22;101579.75;;;18.15;30.13
12868;BME280;33517;49.866;8.320;2023-04-04T07:18:14;101584.69;;;16.86;31.19
12868;BME280;33517;49.866;8.320;2023-04-04T07:21:06;101598.78;;;14.73;31.61
12868;BME280;33517;49.866;8.320;2023-04-04T07:23:58;101600.84;;;13.78;32.44
12868;BME280;33517;49.866;8.320;2023-04-04T07:26:51;101593.38;;;14.33;31.47
12868;BME280;33517;49.866;8.320;2023-04-04T07:29:45;101594.84;;;15.26;30.23
12868;BME280;33517;49.866;8.320;2023-04-04T07:32:37;101587.41;;;16.08;29.29
12868;BME280;33517;49.866;8.320;2023-04-04T07:35:28;101583.34;;;18.73;28.58
12868;BME280;33517;49.866;8.320;2023-04-04T07:38:21;101596.34;;;19.24;26.73
12868;BME280;33517;49.866;8.320;2023-04-04T07:41:13;101591.88;;;19.53;26.56
12868;BME280;33517;49.866;8.320;2023-04-04T07:44:05;101586.75;;;19.85;26.22
12868;BME280;33517;49.866;8.320;2023-04-04T07:46:58;101581.47;;;19.98;26.10
12868;BME280;33517;49.866;8.320;2023-04-04T07:49:50;101586.56;;;18.68;26.14
12868;BME280;33517;49.866;8.320;2023-04-04T07:52:47;101596.91;;;19.41;25.49
12868;BME280;33517;49.866;8.320;2023-04-04T07:55:40;101581.81;;;19.89;25.26
12868;BME280;33517;49.866;8.320;2023-04-04T07:58:32;101585.78;;;20.34;24.49
12868;BME280;33517;49.866;8.320;2023-04-04T08:01:24;101586.16;;;21.89;24.10
12868;BME280;33517;49.866;8.320;2023-04-04T08:04:18;101581.13;;;22.12;24.36
12868;BME280;33517;49.866;8.320;2023-04-04T08:07:09;101582.53;;;22.21;23.80
12868;BME280;33517;49.866;8.320;2023-04-04T08:10:01;101585.75;;;23.12;23.41
12868;BME280;33517;49.866;8.320;2023-04-04T08:12:53;101579.44;;;23.24;22.79
12868;BME280;33517;49.866;8.320;2023-04-04T08:15:45;101584.94;;;22.80;22.40
12868;BME280;33517;49.866;8.320;2023-04-04T08:18:37;101575.34;;;22.53;22.91
12868;BME280;33517;49.866;8.320;2023-04-04T08:21:30;101574.06;;;23.31;22.23
12868;BME280;33517;49.866;8.320;2023-04-04T08:24:22;101570.13;;;22.71;20.96
12868;BME280;33517;49.866;8.320;2023-04-04T08:27:14;101575.63;;;22.82;22.19
12868;BME280;33517;49.866;8.320;2023-04-04T08:30:07;101580.16;;;23.99;21.31
12868;BME280;33517;49.866;8.320;2023-04-04T08:32:59;101579.19;;;23.32;21.50
12868;BME280;33517;49.866;8.320;2023-04-04T08:35:51;101585.41;;;23.94;20.68
12868;BME280;33517;49.866;8.320;2023-04-04T08:38:45;101572.28;;;24.51;20.94
12868;BME280;33517;49.866;8.320;2023-04-04T08:41:38;101570.50;;;24.75;20.62
12868;BME280;33517;49.866;8.320;2023-04-04T08:44:34;101569.97;;;24.55;20.45
12868;BME280;33517;49.866;8.320;2023-04-04T08:47:27;101581.41;;;24.03;19.93
12868;BME280;33517;49.866;8.320;2023-04-04T08:50:21;101562.56;;;24.50;20.45
12868;BME280;33517;49.866;8.320;2023-04-04T08:53:14;101561.00;;;25.14;18.88
12868;BME280;33517;49.866;8.320;2023-04-04T08:56:08;101561.31;;;24.94;19.24
12868;BME280;33517;49.866;8.320;2023-04-04T08:59:00;101562.56;;;25.56;20.07
12868;BME280;33517;49.866;8.320;2023-04-04T09:01:56;101564.47;;;26.18;20.02
12868;BME280;33517;49.866;8.320;2023-04-04T09:04:51;101565.78;;;26.44;18.81
12868;BME280;33517;49.866;8.320;2023-04-04T09:07:44;101564.94;;;26.04;18.73
12868;BME280;33517;49.866;8.320;2023-04-04T09:10:36;101566.09;;;25.57;18.37
12868;BME280;33517;49.866;8.320;2023-04-04T09:13:30;101559.78;;;24.57;18.36
12868;BME280;33517;49.866;8.320;2023-04-04T09:16:23;101548.63;;;24.72;18.80
12868;BME280;33517;49.866;8.320;2023-04-04T09:19:15;101561.00;;;24.13;17.44
12868;BME280;33517;49.866;8.320;2023-04-04T09:22:07;101554.25;;;23.68;19.10
12868;BME280;33517;49.866;8.320;2023-04-04T09:24:59;101551.72;;;24.57;17.56
12868;BME280;33517;49.866;8.320;2023-04-04T09:27:51;101564.31;;;23.30;17.52
12868;BME280;33517;49.866;8.320;2023-04-04T09:30:46;101551.97;;;24.37;18.97
12868;BME280;33517;49.866;8.320;2023-04-04T09:33:39;101554.13;;;25.41;17.77
12868;BME280;33517;49.866;8.320;2023-04-04T09:36:32;101551.38;;;25.06;18.34
12868;BME280;33517;49.866;8.320;2023-04-04T09:39:24;101553.94;;;24.60;18.29
12868;BME280;33517;49.866;8.320;2023-04-04T09:42:16;101557.19;;;23.85;18.86
12868;BME280;33517;49.866;8.320;2023-04-04T09:45:09;101545.16;;;24.53;18.31
12868;BME280;33517;49.866;8.320;2023-04-04T09:48:03;101547.41;;;24.67;18.51
12868;BME280;33517;49.866;8.320;2023-04-04T09:50:57;101553.78;;;25.72;17.62
12868;BME280;33517;49.866;8.320;2023-04-04T09:53:49;101560.91;;;25.32;17.81
12868;BME280;33517;49.866;8.320;2023-04-04T09:56:41;101546.47;;;24.92;18.44
12868;BME280;33517;49.866;8.320;2023-04-04T09:59:35;101547.28;;;25.85;18.27
12868;BME280;33517;49.866;8.320;2023-04-04T10:02:29;101542.06;;;26.46;18.37
12868;BME280;33517;49.866;8.320;2023-04-04T10:05:23;101539.97;;;26.65;17.79
12868;BME280;33517;49.866;8.320;2023-04-04T10:08:16;101540.41;;;26.17;18.38
12868;BME280;33517;49.866;8.320;2023-04-04T10:11:08;101553.00;;;24.84;18.20
12868;BME280;33517;49.866;8.320;2023-04-04T10:14:01;101541.09;;;25.61;18.28
12868;BME280;33517;49.866;8.320;2023-04-04T10:16:55;101540.75;;;25.58;18.42
12868;BME280;33517;49.866;8.320;2023-04-04T10:19:48;101534.34;;;25.98;18.13
12868;BME280;33517;49.866;8.320;2023-04-04T10:22:42;101538.22;;;26.14;18.54
12868;BME280;33517;49.866;8.320;2023-04-04T10:25:35;101540.47;;;26.05;18.20
12868;BME280;33517;49.866;8.320;2023-04-04T10:28:28;101535.88;;;24.79;18.42
12868;BME280;33517;49.866;8.320;2023-04-04T10:31:22;101541.69;;;25.63;18.09
12868;BME280;33517;49.866;8.320;2023-04-04T10:34:21;101542.78;;;25.50;18.04
12868;BME280;33517;49.866;8.320;2023-04-04T10:37:19;101535.00;;;25.66;18.73
12868;BME280;33517;49.866;8.320;2023-04-04T10:40:15;101540.28;;;26.68;17.98
12868;BME280;33517;49.866;8.320;2023-04-04T10:43:10;101541.06;;;25.26;17.37
12868;BME280;33517;49.866;8.320;2023-04-04T10:46:07;101528.03;;;25.93;17.98
12868;BME280;33517;49.866;8.320;2023-04-04T10:49:00;101527.38;;;26.25;18.17
12868;BME280;33517;49.866;8.320;2023-04-04T10:51:53;101523.41;;;26.05;17.71
12868;BME280;33517;49.866;8.320;2023-04-04T10:54:49;101519.50;;;25.73;17.68
12868;BME280;33517;49.866;8.320;2023-04-04T10:57:44;101519.78;;;25.48;18.41
12868;BME280;33517;49.866;8.320;2023-04-04T11:00:50;101506.56;;;25.98;17.40
12868;BME280;33517;49.866;8.320;2023-04-04T11:04:16;101515.34;;;25.42;18.13
12868;BME280;33517;49.866;8.320;2023-04-04T11:07:09;101513.94;;;25.39;18.45
12868;BME280;33517;49.866;8.320;2023-04-04T11:10:12;101500.63;;;25.73;17.77
12868;BME280;33517;49.866;8.320;2023-04-04T11:13:10;101495.19;;;25.44;18.79
12868;BME280;33517;49.866;8.320;2023-04-04T11:16:04;101488.53;;;24.71;18.50
12868;BME280;33517;49.866;8.320;2023-04-04T11:18:58;101491.44;;;24.17;19.02
12868;BME280;33517;49.866;8.320;2023-04-04T11:21:50;101487.81;;;22.89;18.11
12868;BME280;33517;49.866;8.320;2023-04-04T11:24:42;101486.16;;;22.26;19.23
12868;BME280;33517;49.866;8.320;2023-04-04T11:27:34;101483.31;;;23.33;19.00
12868;BME280;33517;49.866;8.320;2023-04-04T11:30:28;101469.97;;;22.39;19.50
12868;BME280;33517;49.866;8.320;2023-04-04T11:33:29;101475.03;;;23.34;19.67
12868;BME280;33517;49.866;8.320;2023-04-04T11:36:50;101476.16;;;23.63;19.36
12868;BME280;33517;49.866;8.320;2023-04-04T11:39:47;101465.66;;;23.91;19.72
12868;BME280;33517;49.866;8.320;2023-04-04T11:42:49;101461.59;;;24.59;19.23
12868;BME280;33517;49.866;8.320;2023-04-04T11:45:44;101461.41;;;25.07;19.28
12868;BME280;33517;49.866;8.320;2023-04-04T11:48:37;101450.84;;;24.18;19.01
12868;BME280;33517;49.866;8.320;2023-04-04T11:51:30;101451.50;;;24.14;19.32
12868;BME280;33517;49.866;8.320;2023-04-04T11:54:22;101444.44;;;24.31;19.80
12868;BME280;33517;49.866;8.320;2023-04-04T11:57:16;101441.38;;;25.26;19.29
12868;BME280;33517;49.866;8.320;2023-04-04T12:00:09;101439.47;;;24.69;19.25
12868;BME280;33517;49.866;8.320;2023-04-04T12:03:05;101441.63;;;24.79;18.56
12868;BME280;33517;49.866;8.320;2023-04-04T12:05:58;101443.00;;;23.08;19.24
12868;BME280;33517;49.866;8.320;2023-04-04T12:08:51;101429.78;;;23.49;19.53
12868;BME280;33517;49.866;8.320;2023-04-04T12:11:43;101423.34;;;23.68;19.34
12868;BME280;33517;49.866;8.320;2023-04-04T12:14:35;101420.84;;;23.55;18.97
12868;BME280;33517;49.866;8.320;2023-04-04T12:17:28;101428.19;;;23.24;19.29
12868;BME280;33517;49.866;8.320;2023-04-04T12:20:22;101431.28;;;22.84;19.43
12868;BME280;33517;49.866;8.320;2023-04-04T12:23:14;101418.22;;;23.49;19.39
12868;BME280;33517;49.866;8.320;2023-04-04T12:26:07;101424.06;;;23.46;19.30
12868;BME280;33517;49.866;8.320;2023-04-04T12:29:01;101423.59;;;23.97;19.47
12868;BME280;33517;49.866;8.320;2023-04-04T12:31:53;101418.53;;;24.07;18.99
12868;BME280;33517;49.866;8.320;2023-04-04T12:34:46;101408.56;;;23.77;19.25
12868;BME280;33517;49.866;8.320;2023-04-04T12:37:55;101403.22;;;23.59;19.27
12868;BME280;33517;49.866;8.320;2023-04-04T12:40:50;101417.28;;;22.51;18.88
12868;BME280;33517;49.866;8.320;2023-04-04T12:43:41;101412.34;;;22.98;19.45
12868;BME280;33517;49.866;8.320;2023-04-04T12:46:38;101413.78;;;23.00;18.80
12868;BME280;33517;49.866;8.320;2023-04-04T12:49:31;101400.91;;;23.45;19.11
12868;BME280;33517;49.866;8.320;2023-04-04T12:52:27;101388.53;;;23.44;19.91
12868;BME280;33517;49.866;8.320;2023-04-04T12:55:23;101381.63;;;23.30;19.95
12868;BME280;33517;49.866;8.320;2023-04-04T12:58:16;101389.53;;;22.88;19.07
12868;BME280;33517;49.866;8.320;2023-04-04T13:01:08;101386.28;;;21.99;19.28
12868;BME280;33517;49.866;8.320;2023-04-04T13:04:01;101381.41;;;22.21;19.90
12868;BME280;33517;49.866;8.320;2023-04-04T13:06:54;101380.72;;;22.01;19.62
12868;BME280;33517;49.866;8.320;2023-04-04T13:09:50;101387.72;;;20.68;20.36
12868;BME280;33517;49.866;8.320;2023-04-04T13:12:57;101376.22;;;20.61;20.58
12868;BME280;33517;49.866;8.320;2023-04-04T13:15:50;101364.25;;;21.02;20.50
12868;BME280;33517;49.866;8.320;2023-04-04T13:18:44;101373.91;;;21.61;20.56
12868;BME280;33517;49.866;8.320;2023-04-04T13:21:38;101361.34;;;21.11;20.56
12868;BME280;33517;49.866;8.320;2023-04-04T13:24:30;101359.28;;;20.86;20.64
12868;BME280;33517;49.866;8.320;2023-04-04T13:27:22;101357.16;;;21.28;20.63
12868;BME280;33517;49.866;8.320;2023-04-04T13:30:19;101358.03;;;20.04;20.79
12868;BME280;33517;49.866;8.320;2023-04-04T13:33:11;101354.88;;;19.68;21.34
12868;BME280;33517;49.866;8.320;2023-04-04T13:36:04;101361.84;;;19.15;22.69
12868;BME280;33517;49.866;8.320;2023-04-04T13:38:56;101356.59;;;17.75;23.51
12868;BME280;33517;49.866;8.320;2023-04-04T13:41:47;101353.94;;;16.21;24.07
12868;BME280;33517;49.866;8.320;2023-04-04T13:44:39;101349.53;;;15.30;26.53
12868;BME280;33517;49.866;8.320;2023-04-04T13:47:32;101352.19;;;14.75;27.24
12868;BME280;33517;49.866;8.320;2023-04-04T13:50:24;101346.09;;;14.18;27.47
12868;BME280;33517;49.866;8.320;2023-04-04T13:53:17;101344.91;;;13.88;27.82
12868;BME280;33517;49.866;8.320;2023-04-04T13:56:08;101336.72;;;13.50;29.71
12868;BME280;33517;49.866;8.320;2023-04-04T13:59:00;101338.69;;;13.32;28.92
12868;BME280;33517;49.866;8.320;2023-04-04T14:01:52;101328.06;;;13.24;29.74
12868;BME280;33517;49.866;8.320;2023-04-04T14:04:46;101329.53;;;12.92;30.71
12868;BME280;33517;49.866;8.320;2023-04-04T14:07:37;101329.38;;;12.86;29.45
12868;BME280;33517;49.866;8.320;2023-04-04T14:10:29;101323.53;;;12.74;30.83
12868;BME280;33517;49.866;8.320;2023-04-04T14:13:21;101324.69;;;12.80;30.59
12868;BME280;33517;49.866;8.320;2023-04-04T14:16:13;101322.75;;;12.82;31.06
12868;BME280;33517;49.866;8.320;2023-04-04T14:19:05;101311.72;;;12.61;30.38
12868;BME280;33517;49.866;8.320;2023-04-04T14:21:58;101300.78;;;12.30;30.20
12868;BME280;33517;49.866;8.320;2023-04-04T14:24:51;101293.13;;;12.45;31.51
12868;BME280;33517;49.866;8.320;2023-04-04T14:27:42;101297.47;;;12.28;31.52
12868;BME280;33517;49.866;8.320;2023-04-04T14:30:34;101295.09;;;12.43;32.21
12868;BME280;33517;49.866;8.320;2023-04-04T14:33:26;101295.34;;;13.25;30.38
12868;BME280;33517;49.866;8.320;2023-04-04T14:36:18;101298.13;;;14.13;30.29
12868;BME280;33517;49.866;8.320;2023-04-04T14:39:12;101290.00;;;14.23;28.78
12868;BME280;33517;49.866;8.320;2023-04-04T14:42:04;101289.03;;;13.75;29.23
12868;BME280;33517;49.866;8.320;2023-04-04T14:44:56;101292.78;;;13.65;29.96
12868;BME280;33517;49.866;8.320;2023-04-04T14:47:49;101285.13;;;13.38;29.80
12868;BME280;33517;49.866;8.320;2023-04-04T14:50:41;101288.22;;;12.83;30.29
12868;BME280;33517;49.866;8.320;2023-04-04T14:53:33;101283.97;;;12.06;30.87
12868;BME280;33517;49.866;8.320;2023-04-04T14:56:26;101284.34;;;11.75;30.72
12868;BME280;33517;49.866;8.320;2023-04-04T14:59:18;101281.22;;;11.45;31.23
12868;BME280;33517;49.866;8.320;2023-04-04T15:02:10;101274.47;;;11.15;31.44
12868;BME280;33517;49.866;8.320;2023-04-04T15:05:02;101280.28;;;11.19;32.78
12868;BME280;33517;49.866;8.320;2023-04-04T15:07:54;101273.16;;;11.29;32.77